createdAt,value
2023-05-04T00:01:56.057Z,279
2023-05-04T00:04:06.378Z,279
2023-05-04T00:06:13.225Z,279
2023-05-04T00:08:19.869Z,279
2023-05-04T00:10:26.635Z,279
2023-05-04T00:12:33.249Z,274
2023-05-04T00:14:42.061Z,276
2023-05-04T00:16:52.354Z,276
2023-05-04T00:19:06.533Z,276
2023-05-04T00:21:15.825Z,276
2023-05-04T00:23:24.255Z,271
2023-05-04T00:25:31.993Z,272
2023-05-04T00:27:38.533Z,273
2023-05-04T00:29:48.286Z,273
2023-05-04T00:31:54.818Z,273
2023-05-04T00:34:01.605Z,274
2023-05-04T00:36:09.309Z,276
2023-05-04T00:38:19.358Z,276
2023-05-04T00:40:27.420Z,276
2023-05-04T00:42:37.691Z,276
2023-05-04T00:44:44.944Z,276
2023-05-04T00:46:54.535Z,276
2023-05-04T00:49:00.898Z,273
2023-05-04T00:51:07.597Z,274
2023-05-04T00:53:16.029Z,276
2023-05-04T00:55:24.673Z,276
2023-05-04T00:57:37.939Z,276
2023-05-04T00:59:45.146Z,276
2023-05-04T01:01:52.649Z,276
2023-05-04T01:04:01.213Z,277
2023-05-04T01:06:11.673Z,277
2023-05-04T01:08:18.401Z,277
2023-05-04T01:10:24.936Z,277
2023-05-04T01:12:31.414Z,276
2023-05-04T01:14:40.644Z,277
2023-05-04T01:16:47.849Z,276
2023-05-04T01:18:55.344Z,277
2023-05-04T01:21:01.854Z,276
2023-05-04T01:23:10.531Z,274
2023-05-04T01:25:18.544Z,273
2023-05-04T01:27:30.066Z,273
2023-05-04T01:29:39.437Z,274
2023-05-04T01:31:48.449Z,273
2023-05-04T01:33:55.153Z,273
2023-05-04T01:36:04.609Z,273
2023-05-04T01:38:11.260Z,273
2023-05-04T01:40:20.779Z,273
2023-05-04T01:42:31.393Z,273
2023-05-04T01:44:38.177Z,273
2023-05-04T01:46:48.117Z,273
2023-05-04T01:48:54.990Z,273
2023-05-04T01:51:01.614Z,270
2023-05-04T01:53:10.945Z,277
2023-05-04T01:55:17.974Z,277
2023-05-04T01:57:26.512Z,277
2023-05-04T01:59:33.163Z,277
2023-05-04T02:01:40.822Z,277
2023-05-04T02:03:51.442Z,277
2023-05-04T02:05:59.982Z,278
2023-05-04T02:08:08.541Z,277
2023-05-04T02:10:17.419Z,277
2023-05-04T02:12:24.063Z,278
2023-05-04T02:14:30.543Z,278
2023-05-04T02:16:45.213Z,277
2023-05-04T02:19:05.661Z,277
2023-05-04T02:21:16.328Z,276
2023-05-04T02:23:30.459Z,277
2023-05-04T02:25:37.352Z,277
2023-05-04T02:27:45.885Z,277
2023-05-04T02:29:55.525Z,276
2023-05-04T02:32:05.199Z,276
2023-05-04T02:34:12.941Z,273
2023-05-04T02:36:20.355Z,273
2023-05-04T02:38:32.415Z,274
2023-05-04T02:40:44.213Z,273
2023-05-04T02:42:51.061Z,274
2023-05-04T02:45:03.268Z,274
2023-05-04T02:47:25.370Z,276
2023-05-04T02:49:32.259Z,276
2023-05-04T02:51:41.603Z,276
2023-05-04T02:53:50.155Z,276
2023-05-04T02:56:01.631Z,276
2023-05-04T02:58:08.863Z,276
2023-05-04T03:00:15.538Z,276
2023-05-04T03:02:22.063Z,276
2023-05-04T03:04:30.112Z,276
2023-05-04T03:06:36.589Z,274
2023-05-04T03:08:44.815Z,274
2023-05-04T03:10:57.199Z,273
2023-05-04T03:13:03.739Z,273
2023-05-04T03:15:12.635Z,273
2023-05-04T03:17:25.476Z,274
2023-05-04T03:19:32.986Z,274
2023-05-04T03:21:46.866Z,274
2023-05-04T03:23:57.708Z,274
2023-05-04T03:26:04.318Z,274
2023-05-04T03:28:14.993Z,274
2023-05-04T03:30:21.718Z,274
2023-05-04T03:32:32.330Z,274
2023-05-04T03:34:50.931Z,274
2023-05-04T03:36:57.440Z,274
2023-05-04T03:39:04.283Z,274
2023-05-04T03:41:13.559Z,274
2023-05-04T03:43:22.950Z,274
2023-05-04T03:45:34.954Z,274
2023-05-04T03:47:44.444Z,274
2023-05-04T03:49:55.541Z,273
2023-05-04T03:52:04.335Z,273
2023-05-04T03:54:10.818Z,273
2023-05-04T03:56:22.491Z,272
2023-05-04T03:58:29.858Z,273
2023-05-04T04:00:41.446Z,272
2023-05-04T04:02:53.277Z,273
2023-05-04T04:05:02.865Z,273
2023-05-04T04:07:13.909Z,273
2023-05-04T04:09:25.716Z,273
2023-05-04T04:11:32.558Z,273
2023-05-04T04:13:39.064Z,273
2023-05-04T04:15:53.866Z,273
2023-05-04T04:18:00.668Z,273
2023-05-04T04:20:11.386Z,274
2023-05-04T04:22:22.104Z,274
2023-05-04T04:24:31.379Z,274
2023-05-04T04:26:40.969Z,276
2023-05-04T04:28:58.169Z,276
2023-05-04T04:31:08.001Z,276
2023-05-04T04:33:18.522Z,276
2023-05-04T04:35:33.059Z,276
2023-05-04T04:37:39.520Z,277
2023-05-04T04:39:49.205Z,277
2023-05-04T04:41:58.675Z,276
2023-05-04T04:44:08.368Z,277
2023-05-04T04:46:21.469Z,277
2023-05-04T04:48:28.277Z,276
2023-05-04T04:50:35.502Z,277
2023-05-04T04:52:44.525Z,276
2023-05-04T04:54:54.927Z,276
2023-05-04T04:57:07.902Z,276
2023-05-04T04:59:18.489Z,269
2023-05-04T05:01:40.961Z,277
2023-05-04T05:03:50.755Z,276
2023-05-04T05:05:58.953Z,276
2023-05-04T05:08:07.753Z,276
2023-05-04T05:10:14.535Z,277
2023-05-04T05:12:22.798Z,276
2023-05-04T05:14:32.195Z,276
2023-05-04T05:16:40.540Z,276
2023-05-04T05:18:48.823Z,276
2023-05-04T05:20:58.453Z,276
2023-05-04T05:23:10.325Z,277
2023-05-04T05:25:21.264Z,277
2023-05-04T05:27:30.103Z,277
2023-05-04T05:29:41.279Z,276
2023-05-04T05:31:49.140Z,276
2023-05-04T05:34:00.401Z,276
2023-05-04T05:36:11.654Z,276
2023-05-04T05:38:19.671Z,276
2023-05-04T05:40:29.060Z,274
2023-05-04T05:42:45.706Z,274
2023-05-04T05:44:58.546Z,277
2023-05-04T05:47:05.325Z,277
2023-05-04T05:49:19.256Z,277
2023-05-04T05:51:32.756Z,277
2023-05-04T05:53:44.240Z,276
2023-05-04T05:55:59.459Z,277
2023-05-04T05:58:08.020Z,277
2023-05-04T06:00:16.197Z,277
2023-05-04T06:02:30.578Z,277
2023-05-04T06:04:39.370Z,277
2023-05-04T06:06:54.910Z,277
2023-05-04T06:09:02.676Z,277
2023-05-04T06:11:09.984Z,277
2023-05-04T06:13:23.700Z,277
2023-05-04T06:15:30.218Z,276
2023-05-04T06:17:37.489Z,277
2023-05-04T06:19:52.595Z,277
2023-05-04T06:22:04.205Z,277
2023-05-04T06:24:13.469Z,277
2023-05-04T06:26:23.695Z,277
2023-05-04T06:28:46.498Z,277
2023-05-04T06:31:01.200Z,277
2023-05-04T06:33:11.884Z,278
2023-05-04T06:35:19.873Z,278
2023-05-04T06:37:42.313Z,277
2023-05-04T06:39:56.325Z,277
2023-05-04T06:42:18.662Z,277
2023-05-04T06:44:27.576Z,277
2023-05-04T06:46:35.696Z,277
2023-05-04T06:48:43.548Z,277
2023-05-04T06:50:50.293Z,277
2023-05-04T06:52:57.875Z,278
2023-05-04T06:55:09.292Z,277
2023-05-04T06:57:16.865Z,277
2023-05-04T06:59:26.874Z,277
2023-05-04T07:01:33.945Z,277
2023-05-04T07:03:40.851Z,277
2023-05-04T07:05:47.892Z,277
2023-05-04T07:07:54.623Z,277
2023-05-04T07:10:02.080Z,277
2023-05-04T07:12:09.460Z,278
2023-05-04T07:14:16.296Z,277
2023-05-04T07:16:23.788Z,277
2023-05-04T07:18:31.168Z,277
2023-05-04T07:20:40.467Z,277
2023-05-04T07:22:54.338Z,277
2023-05-04T07:25:06.143Z,277
2023-05-04T07:27:16.161Z,277
2023-05-04T07:29:29.324Z,277
2023-05-04T07:31:54.309Z,277
2023-05-04T07:34:06.712Z,277
2023-05-04T07:36:18.362Z,277
2023-05-04T07:38:34.428Z,277
2023-05-04T07:40:46.930Z,272
2023-05-04T07:42:54.304Z,271
2023-05-04T07:45:05.986Z,277
2023-05-04T07:47:13.323Z,277
2023-05-04T07:49:23.898Z,277
2023-05-04T07:51:34.846Z,276
2023-05-04T07:53:41.111Z,276
2023-05-04T07:55:47.403Z,277
2023-05-04T07:57:54.152Z,277
2023-05-04T08:00:03.595Z,278
2023-05-04T08:02:14.575Z,277
2023-05-04T08:04:22.472Z,277
2023-05-04T08:06:30.566Z,277
2023-05-04T08:08:42.950Z,276
2023-05-04T08:10:52.315Z,276
2023-05-04T08:13:15.088Z,276
2023-05-04T08:15:23.891Z,272
2023-05-04T08:17:31.850Z,272
2023-05-04T08:19:38.058Z,274
2023-05-04T08:21:44.430Z,277
2023-05-04T08:23:54.728Z,277
2023-05-04T08:26:03.134Z,276
2023-05-04T08:28:09.575Z,277
2023-05-04T08:30:16.796Z,277
2023-05-04T08:32:24.407Z,277
2023-05-04T08:34:33.988Z,276
2023-05-04T08:36:42.075Z,277
2023-05-04T08:38:50.245Z,277
2023-05-04T08:40:57.487Z,277
2023-05-04T08:43:04.939Z,278
2023-05-04T08:45:13.334Z,278
2023-05-04T08:47:22.801Z,277
2023-05-04T08:49:31.060Z,277
2023-05-04T08:51:38.403Z,277
2023-05-04T08:53:48.473Z,278
2023-05-04T08:55:55.316Z,277
2023-05-04T08:58:02.677Z,277
2023-05-04T09:00:10.240Z,277
2023-05-04T09:02:17.620Z,276
2023-05-04T09:04:26.520Z,277
2023-05-04T09:06:35.410Z,277
2023-05-04T09:08:43.381Z,278
2023-05-04T09:10:52.931Z,278
2023-05-04T09:13:01.269Z,279
2023-05-04T09:15:09.730Z,278
2023-05-04T09:17:17.990Z,278
2023-05-04T09:19:26.612Z,278
2023-05-04T09:22:14.145Z,278
2023-05-04T09:24:21.831Z,279
2023-05-04T09:26:31.619Z,279
2023-05-04T09:28:39.235Z,279
2023-05-04T09:30:47.180Z,279
2023-05-04T09:32:54.640Z,279
2023-05-04T09:35:02.563Z,279
2023-05-04T09:37:13.445Z,279
2023-05-04T09:39:21.414Z,279
2023-05-04T09:41:28.446Z,279
2023-05-04T09:43:36.335Z,279
2023-05-04T09:45:43.120Z,278
2023-05-04T09:47:49.519Z,278
2023-05-04T09:49:59.323Z,279
2023-05-04T09:52:06.461Z,278
2023-05-04T09:54:13.111Z,278
2023-05-04T09:56:19.609Z,278
2023-05-04T09:58:26.261Z,278
2023-05-04T10:00:36.285Z,278
2023-05-04T10:02:44.636Z,278
2023-05-04T10:04:56.771Z,278
2023-05-04T10:07:04.685Z,278
2023-05-04T10:09:11.368Z,278
2023-05-04T10:11:18.512Z,278
2023-05-04T10:13:27.097Z,278
2023-05-04T10:15:35.001Z,278
2023-05-04T10:17:43.028Z,278
2023-05-04T10:19:51.446Z,277
2023-05-04T10:22:02.060Z,278
2023-05-04T10:24:15.661Z,278
2023-05-04T10:26:22.940Z,282
2023-05-04T10:28:29.690Z,282
2023-05-04T10:30:41.403Z,282
2023-05-04T10:32:51.250Z,282
2023-05-04T10:35:00.718Z,282
2023-05-04T10:37:07.987Z,282
2023-05-04T10:39:14.924Z,282
2023-05-04T10:41:22.457Z,282
2023-05-04T10:43:31.526Z,282
2023-05-04T10:45:38.660Z,282
2023-05-04T10:47:47.952Z,280
2023-05-04T10:49:55.285Z,280
2023-05-04T10:52:02.790Z,280
2023-05-04T10:54:11.085Z,280
2023-05-04T10:56:17.955Z,280
2023-05-04T10:58:27.237Z,280
2023-05-04T11:00:34.590Z,280
2023-05-04T11:02:45.209Z,279
2023-05-04T11:04:52.777Z,280
2023-05-04T11:07:00.254Z,279
2023-05-04T11:09:07.371Z,279
2023-05-04T11:11:14.730Z,274
2023-05-04T11:13:26.292Z,278
2023-05-04T11:15:36.535Z,277
2023-05-04T11:17:45.567Z,273
2023-05-04T11:19:55.561Z,273
2023-05-04T11:22:03.581Z,279
2023-05-04T11:24:15.937Z,273
2023-05-04T11:26:24.077Z,274
2023-05-04T11:28:37.191Z,276
2023-05-04T11:30:48.384Z,273
2023-05-04T11:32:55.647Z,266
2023-05-04T11:35:03.970Z,272
2023-05-04T11:37:11.999Z,279
2023-05-04T11:39:18.698Z,279
2023-05-04T11:41:28.462Z,278
2023-05-04T11:43:38.384Z,277
2023-05-04T11:45:45.766Z,277
2023-05-04T11:47:54.444Z,277
2023-05-04T11:50:03.344Z,273
2023-05-04T11:52:11.112Z,273
2023-05-04T11:54:18.922Z,270
2023-05-04T11:56:26.508Z,271
2023-05-04T11:58:40.273Z,265
2023-05-04T12:00:57.563Z,248
2023-05-04T12:03:05.412Z,254
2023-05-04T12:05:14.873Z,254
2023-05-04T12:07:22.280Z,255
2023-05-04T12:09:34.065Z,257
2023-05-04T12:11:44.715Z,255
2023-05-04T12:13:52.292Z,248
2023-05-04T12:16:01.759Z,271
2023-05-04T12:18:12.430Z,273
2023-05-04T12:20:20.814Z,273
2023-05-04T12:22:28.896Z,273
2023-05-04T12:24:39.433Z,272
2023-05-04T12:26:48.936Z,273
2023-05-04T12:28:56.891Z,272
2023-05-04T12:31:04.956Z,272
2023-05-04T12:33:15.442Z,271
2023-05-04T12:35:23.779Z,272
2023-05-04T12:37:33.925Z,274
2023-05-04T12:39:40.830Z,273
2023-05-04T12:41:51.990Z,273
2023-05-04T12:44:00.149Z,277
2023-05-04T12:46:07.991Z,276
2023-05-04T12:48:15.757Z,272
2023-05-04T12:50:29.959Z,273
2023-05-04T12:52:38.173Z,278
2023-05-04T12:54:45.888Z,278
2023-05-04T12:56:54.116Z,277
2023-05-04T12:59:05.069Z,277
2023-05-04T13:01:13.458Z,276
2023-05-04T13:03:25.066Z,270
2023-05-04T13:05:32.826Z,278
2023-05-04T13:07:42.744Z,272
2023-05-04T13:09:54.743Z,279
2023-05-04T13:12:07.855Z,277
2023-05-04T13:14:17.844Z,277
2023-05-04T13:16:25.789Z,278
2023-05-04T13:18:33.447Z,271
2023-05-04T13:20:41.735Z,268
2023-05-04T13:22:48.544Z,256
2023-05-04T13:24:57.152Z,276
2023-05-04T13:27:04.536Z,274
2023-05-04T13:29:12.629Z,264
2023-05-04T13:31:19.989Z,265
2023-05-04T13:33:34.362Z,268
2023-05-04T13:35:47.627Z,274
2023-05-04T13:37:56.490Z,272
2023-05-04T13:40:04.734Z,272
2023-05-04T13:42:13.586Z,264
2023-05-04T13:44:23.317Z,262
2023-05-04T13:46:31.783Z,264
2023-05-04T13:48:39.763Z,264
2023-05-04T13:50:51.786Z,265
2023-05-04T13:53:00.366Z,268
2023-05-04T13:55:08.231Z,265
2023-05-04T13:57:17.530Z,264
2023-05-04T13:59:31.469Z,267
2023-05-04T14:01:39.329Z,270
2023-05-04T14:03:46.840Z,272
2023-05-04T14:05:57.934Z,272
2023-05-04T14:08:05.029Z,267
2023-05-04T14:10:12.736Z,274
2023-05-04T14:12:23.943Z,277
2023-05-04T14:14:31.740Z,274
2023-05-04T14:16:41.154Z,276
2023-05-04T14:18:49.873Z,273
2023-05-04T14:20:57.520Z,273
2023-05-04T14:23:05.663Z,257
2023-05-04T14:25:13.731Z,257
2023-05-04T14:27:21.610Z,266
2023-05-04T14:29:29.958Z,259
2023-05-04T14:31:38.170Z,262
2023-05-04T14:33:46.180Z,260
2023-05-04T14:35:53.989Z,253
2023-05-04T14:38:05.182Z,252
2023-05-04T14:40:16.642Z,265
2023-05-04T14:42:26.238Z,253
2023-05-04T14:44:34.282Z,254
2023-05-04T14:46:42.277Z,264
2023-05-04T14:48:49.924Z,267
2023-05-04T14:50:57.204Z,264
2023-05-04T14:53:06.178Z,256
2023-05-04T14:55:13.847Z,265
2023-05-04T14:57:21.523Z,255
2023-05-04T14:59:29.816Z,264
2023-05-04T15:01:37.437Z,266
2023-05-04T15:03:45.794Z,262
2023-05-04T15:05:53.512Z,262
2023-05-04T15:08:01.384Z,265
2023-05-04T15:10:10.239Z,261
2023-05-04T15:12:18.630Z,256
2023-05-04T15:14:25.950Z,256
2023-05-04T15:16:35.676Z,266
2023-05-04T15:18:43.461Z,267
2023-05-04T15:20:52.017Z,269
2023-05-04T15:23:00.580Z,270
2023-05-04T15:25:08.090Z,270
2023-05-04T15:27:19.879Z,267
2023-05-04T15:29:29.829Z,267
2023-05-04T15:31:38.847Z,266
2023-05-04T15:33:47.210Z,266
2023-05-04T15:35:55.179Z,262
2023-05-04T15:38:04.092Z,262
2023-05-04T15:40:12.749Z,260
2023-05-04T15:42:21.319Z,259
2023-05-04T15:44:29.894Z,259
2023-05-04T15:46:37.687Z,266
2023-05-04T15:48:44.983Z,265
2023-05-04T15:50:53.804Z,264
2023-05-04T15:53:01.957Z,261
2023-05-04T15:55:28.345Z,261
2023-05-04T15:57:36.283Z,256
2023-05-04T15:59:46.577Z,264
2023-05-04T16:01:54.428Z,264
2023-05-04T16:04:02.338Z,261
2023-05-04T16:06:10.267Z,258
2023-05-04T16:08:20.124Z,261
2023-05-04T16:10:28.134Z,267
2023-05-04T16:12:35.869Z,257
2023-05-04T16:14:44.001Z,256
2023-05-04T16:16:51.622Z,257
2023-05-04T16:19:02.833Z,257
2023-05-04T16:21:11.236Z,261
2023-05-04T16:23:19.246Z,262
2023-05-04T16:25:28.060Z,257
2023-05-04T16:27:36.849Z,249
2023-05-04T16:29:44.742Z,261
2023-05-04T16:31:52.582Z,255
2023-05-04T16:34:00.337Z,261
2023-05-04T16:36:12.599Z,257
2023-05-04T16:38:21.156Z,268
2023-05-04T16:40:30.678Z,262
2023-05-04T16:42:43.565Z,268
2023-05-04T16:44:52.801Z,272
2023-05-04T16:47:01.150Z,268
2023-05-04T16:49:14.580Z,270
2023-05-04T16:51:22.799Z,272
2023-05-04T16:53:35.181Z,272
2023-05-04T16:55:42.945Z,270
2023-05-04T16:57:51.796Z,266
2023-05-04T17:00:14.064Z,264
2023-05-04T17:02:23.578Z,264
2023-05-04T17:04:34.022Z,261
2023-05-04T17:06:42.187Z,262
2023-05-04T17:08:49.968Z,266
2023-05-04T17:10:57.516Z,262
2023-05-04T17:13:09.203Z,262
2023-05-04T17:15:17.616Z,261
2023-05-04T17:17:25.284Z,262
2023-05-04T17:19:37.104Z,265
2023-05-04T17:21:45.378Z,262
2023-05-04T17:23:52.737Z,262
2023-05-04T17:25:59.995Z,266
2023-05-04T17:28:08.791Z,256
2023-05-04T17:30:17.406Z,259
2023-05-04T17:32:25.413Z,257
2023-05-04T17:34:33.161Z,259
2023-05-04T17:36:41.553Z,259
2023-05-04T17:39:03.315Z,260
2023-05-04T17:41:10.906Z,261
2023-05-04T17:43:21.227Z,260
2023-05-04T17:45:29.369Z,261
2023-05-04T17:47:38.054Z,261
2023-05-04T17:49:45.799Z,255
2023-05-04T17:51:53.928Z,256
2023-05-04T17:54:02.438Z,257
2023-05-04T17:56:10.872Z,257
2023-05-04T17:58:19.150Z,256
2023-05-04T18:00:41.338Z,258
2023-05-04T18:02:50.148Z,260
2023-05-04T18:05:11.824Z,255
2023-05-04T18:07:21.223Z,257
2023-05-04T18:09:29.559Z,257
2023-05-04T18:11:38.732Z,256
2023-05-04T18:13:46.566Z,254
2023-05-04T18:15:56.468Z,253
2023-05-04T18:18:05.116Z,253
2023-05-04T18:20:14.284Z,254
2023-05-04T18:22:24.251Z,255
2023-05-04T18:24:34.356Z,254
2023-05-04T18:26:43.704Z,256
2023-05-04T18:28:51.614Z,258
2023-05-04T18:31:02.566Z,246
2023-05-04T18:33:10.318Z,249
2023-05-04T18:35:21.069Z,248
2023-05-04T18:37:30.052Z,253
2023-05-04T18:39:38.568Z,257
2023-05-04T18:41:57.620Z,255
2023-05-04T18:44:08.961Z,253
2023-05-04T18:46:26.816Z,255
2023-05-04T18:48:39.017Z,249
2023-05-04T18:50:52.636Z,252
2023-05-04T18:53:02.027Z,252
2023-05-04T18:55:11.658Z,255
2023-05-04T18:57:36.536Z,254
2023-05-04T18:59:52.029Z,253
2023-05-04T19:02:03.695Z,261
2023-05-04T19:04:13.156Z,266
2023-05-04T19:06:27.411Z,267
2023-05-04T19:08:35.741Z,265
2023-05-04T19:10:43.988Z,264
2023-05-04T19:12:53.260Z,265
2023-05-04T19:15:00.981Z,261
2023-05-04T19:17:09.220Z,264
2023-05-04T19:19:16.845Z,257
2023-05-04T19:21:25.439Z,258
2023-05-04T19:23:33.916Z,259
2023-05-04T19:25:41.434Z,261
2023-05-04T19:28:17.341Z,262
2023-05-04T19:30:25.855Z,261
2023-05-04T19:32:34.908Z,268
2023-05-04T19:34:43.053Z,268
2023-05-04T19:36:51.692Z,266
2023-05-04T19:38:59.805Z,262
2023-05-04T19:41:07.841Z,268
2023-05-04T19:43:18.797Z,268
2023-05-04T19:45:29.279Z,267
2023-05-04T19:47:38.044Z,265
2023-05-04T19:49:48.502Z,266
2023-05-04T19:51:57.038Z,259
2023-05-04T19:54:05.353Z,253
2023-05-04T19:56:18.599Z,265
2023-05-04T19:58:27.806Z,266
2023-05-04T20:00:36.301Z,262
2023-05-04T20:02:49.216Z,259
2023-05-04T20:04:57.242Z,262
2023-05-04T20:07:06.242Z,261
2023-05-04T20:09:14.327Z,265
2023-05-04T20:11:22.169Z,264
2023-05-04T20:13:32.017Z,264
2023-05-04T20:15:40.055Z,267
2023-05-04T20:17:49.083Z,261
2023-05-04T20:19:57.390Z,265
2023-05-04T20:22:05.522Z,264
2023-05-04T20:24:13.650Z,262
2023-05-04T20:26:21.641Z,264
2023-05-04T20:28:29.946Z,265
2023-05-04T20:30:40.779Z,266
2023-05-04T20:32:48.879Z,264
2023-05-04T20:34:57.221Z,264
2023-05-04T20:37:05.089Z,264
2023-05-04T20:39:11.760Z,262
2023-05-04T20:41:23.127Z,261
2023-05-04T20:43:32.682Z,264
2023-05-04T20:45:41.014Z,264
2023-05-04T20:47:50.503Z,259
2023-05-04T20:49:58.456Z,257
2023-05-04T20:52:06.957Z,257
2023-05-04T20:54:18.028Z,259
2023-05-04T20:56:25.250Z,256
2023-05-04T20:58:33.340Z,257
2023-05-04T21:00:42.996Z,256
2023-05-04T21:02:51.215Z,253
2023-05-04T21:05:01.280Z,258
2023-05-04T21:07:09.723Z,256
2023-05-04T21:09:16.425Z,256
2023-05-04T21:11:26.471Z,256
2023-05-04T21:13:34.774Z,259
2023-05-04T21:15:42.110Z,255
2023-05-04T21:17:49.239Z,255
2023-05-04T21:19:56.386Z,256
2023-05-04T21:22:02.830Z,256
2023-05-04T21:24:10.842Z,256
2023-05-04T21:26:17.872Z,259
2023-05-04T21:28:25.512Z,257
2023-05-04T21:30:33.305Z,257
2023-05-04T21:32:40.127Z,257
2023-05-04T21:34:47.768Z,255
2023-05-04T21:36:55.162Z,257
2023-05-04T21:39:02.125Z,255
2023-05-04T21:41:10.302Z,258
2023-05-04T21:43:20.089Z,258
2023-05-04T21:45:28.642Z,257
2023-05-04T21:47:36.032Z,264
2023-05-04T21:49:42.643Z,262
2023-05-04T21:51:49.917Z,261
2023-05-04T21:53:57.104Z,264
2023-05-04T21:56:03.785Z,262
2023-05-04T21:58:10.592Z,262
2023-05-04T22:00:20.147Z,261
2023-05-04T22:02:27.944Z,261
2023-05-04T22:04:34.513Z,261
2023-05-04T22:06:41.143Z,261
2023-05-04T22:08:48.201Z,260
2023-05-04T22:10:55.222Z,262
2023-05-04T22:13:02.395Z,261
2023-05-04T22:15:09.548Z,265
2023-05-04T22:17:16.326Z,265
2023-05-04T22:19:23.440Z,265
2023-05-04T22:21:30.361Z,261
2023-05-04T22:23:36.294Z,259
2023-05-04T22:25:59.697Z,261
2023-05-04T22:28:06.403Z,261
2023-05-04T22:30:13.621Z,260
2023-05-04T22:32:20.749Z,259
2023-05-04T22:34:29.350Z,257
2023-05-04T22:36:36.181Z,260
2023-05-04T22:38:42.778Z,260
2023-05-04T22:40:50.213Z,259
2023-05-04T22:42:56.944Z,264
2023-05-04T22:45:03.798Z,261
2023-05-04T22:47:10.940Z,257
2023-05-04T22:49:17.614Z,257
2023-05-04T22:51:24.221Z,256
2023-05-04T22:53:30.660Z,257
2023-05-04T22:55:51.438Z,257
2023-05-04T22:58:00.434Z,256
2023-05-04T23:00:10.450Z,255
2023-05-04T23:02:18.707Z,256
2023-05-04T23:04:26.907Z,255
2023-05-04T23:06:35.458Z,261
2023-05-04T23:08:41.837Z,261
2023-05-04T23:10:48.767Z,262
2023-05-04T23:12:54.983Z,261
2023-05-04T23:15:01.827Z,262
2023-05-04T23:17:08.232Z,261
2023-05-04T23:19:17.709Z,261
2023-05-04T23:21:24.927Z,262
2023-05-04T23:23:31.356Z,258
2023-05-04T23:25:37.819Z,252
2023-05-04T23:27:44.423Z,254
2023-05-04T23:29:50.888Z,254
2023-05-04T23:31:57.965Z,256
2023-05-04T23:34:04.531Z,255
2023-05-04T23:36:11.520Z,254
2023-05-04T23:38:17.828Z,256
2023-05-04T23:40:24.752Z,256
2023-05-04T23:42:33.230Z,255
2023-05-04T23:44:39.826Z,257
2023-05-04T23:46:46.838Z,257
2023-05-04T23:48:53.887Z,256
2023-05-04T23:51:01.389Z,256
2023-05-04T23:53:08.136Z,256
2023-05-04T23:55:14.666Z,256
2023-05-04T23:57:20.842Z,255
2023-05-04T23:59:27.457Z,256
